Humidity-temperature Sensor

Selected Measurement Type: Air Temperature

 
Air Temperature [°C]     6 entries per hour
Showing data from 4/14/2024 (00:00:00 Z) to 4/13/2024 (00:01:00 Z)
Previous Next [ Day | 3-Days | 7-Days ]
First Last
Prev [ Day | 3-Days | 7-Days ] Next
First Last

Start Time:     :
End Time:     :     
Time (in GMT) :00 :50 :40 :30 :20 :10
Previous Next [ Day | 3-Days | 7-Days ]
First Last
Prev [ Day | 3-Days | 7-Days ] Next
First Last


123 => good data
MM => data is determined as missing
-- => data not received/configured
Back to Top Back to Top
4/14/2024 00:00 to 23:10 27.76 27.72 27.62 27.66 27.57 27.52
4/13/2024 23:00 to 22:10 27.52 27.49 27.43 27.59 27.57 27.58
4/13/2024 22:00 to 21:10 27.56 27.54 27.45 27.45 27.33 27.40
4/13/2024 21:00 to 20:10 27.23 27.37 27.43 27.41 27.35 27.30
4/13/2024 20:00 to 19:10 27.29 27.30 27.31 27.34 27.35 27.38
4/13/2024 19:00 to 18:10 27.23 27.31 27.22 27.25 27.17 27.24
4/13/2024 18:00 to 17:10 27.22 27.19 27.21 27.11 27.13 27.15
4/13/2024 17:00 to 16:10 27.14 27.04 27.14 27.23 27.14 27.03
4/13/2024 16:00 to 15:10 26.93 27.09 27.05 27.08 27.07 27.11
4/13/2024 15:00 to 14:10 27.05 27.21 27.07 27.04 27.06 26.95
4/13/2024 14:00 to 13:10 27.02 26.84 26.90 26.85 26.82 26.79
4/13/2024 13:00 to 12:10 26.70 26.75 26.79 26.76 26.84 26.80
4/13/2024 12:00 to 11:10 26.78 26.74 26.81 26.73 26.82 26.79
4/13/2024 11:00 to 10:10 26.69 26.87 26.69 26.71 26.74 26.90
4/13/2024 10:00 to 9:10 26.92 26.83 26.84 26.76 26.74 26.73
4/13/2024 09:00 to 8:10 26.83 26.80 26.88 26.84 26.85 26.92
4/13/2024 08:00 to 7:10 26.85 26.86 26.88 26.93 26.94 27.00
4/13/2024 07:00 to 6:10 27.08 26.98 26.96 26.92 26.97 27.01
4/13/2024 06:00 to 5:10 26.96 26.98 27.05 27.12 27.02 27.05
4/13/2024 05:00 to 4:10 27.11 27.16 27.16 27.08 27.04 27.17
4/13/2024 04:00 to 3:10 27.07 27.02 27.10 27.17 27.09 27.15
4/13/2024 03:00 to 2:10 27.16 27.13 27.04 27.24 27.16 27.14
4/13/2024 02:00 to 1:10 27.17 27.19 27.12 27.15 27.16 27.26
4/13/2024 01:00 to 0:10 27.15 27.21 27.29 27.51 27.33 27.42